createdAt,value
2019-04-07T00:01:52.761Z,90.00
2019-04-07T00:04:23.697Z,90.30
2019-04-07T00:06:54.464Z,90.30
2019-04-07T00:09:25.059Z,89.60
2019-04-07T00:11:55.549Z,90.60
2019-04-07T00:14:26.104Z,91.10
2019-04-07T00:16:56.957Z,90.90
2019-04-07T00:19:27.617Z,91.40
2019-04-07T00:21:58.128Z,91.90
2019-04-07T00:24:28.578Z,91.90
2019-04-07T00:27:00.554Z,91.80
2019-04-07T00:29:31.032Z,91.50
2019-04-07T00:32:01.512Z,91.50
2019-04-07T00:34:33.505Z,91.50
2019-04-07T00:37:04.008Z,91.40
2019-04-07T00:39:34.568Z,91.40
2019-04-07T00:42:05.275Z,91.30
2019-04-07T00:44:35.886Z,91.50
2019-04-07T00:47:06.450Z,90.90
2019-04-07T00:49:37.071Z,91.40
2019-04-07T00:52:09.418Z,91.10
2019-04-07T00:54:40.257Z,90.90
2019-04-07T00:57:11.308Z,90.70
2019-04-07T00:59:45.242Z,90.80
2019-04-07T01:02:16.894Z,90.60
2019-04-07T01:04:47.672Z,90.70
2019-04-07T01:07:18.305Z,90.70
2019-04-07T01:09:48.741Z,90.90
2019-04-07T01:12:19.374Z,91.00
2019-04-07T01:14:49.781Z,90.90
2019-04-07T01:17:20.232Z,91.20
2019-04-07T01:19:52.248Z,91.20
2019-04-07T01:22:22.713Z,91.20
2019-04-07T01:24:53.383Z,91.10
2019-04-07T01:27:24.646Z,91.50
2019-04-07T01:29:55.278Z,91.60
2019-04-07T01:32:25.804Z,91.80
2019-04-07T01:34:56.848Z,92.00
2019-04-07T01:37:27.705Z,92.10
2019-04-07T01:39:58.137Z,92.30
2019-04-07T01:42:46.609Z,92.60
2019-04-07T01:45:21.613Z,92.60
2019-04-07T01:47:54.091Z,93.00
2019-04-07T01:50:42.809Z,93.00
2019-04-07T01:53:18.010Z,93.40
2019-04-07T01:56:06.700Z,93.60
2019-04-07T01:58:58.324Z,93.70
2019-04-07T02:01:45.289Z,93.70
2019-04-07T02:04:34.718Z,93.90
2019-04-07T02:07:07.306Z,94.10
2019-04-07T02:09:40.227Z,94.10
2019-04-07T02:12:28.693Z,94.10
2019-04-07T02:15:06.373Z,94.00
2019-04-07T02:17:38.353Z,94.20
2019-04-07T02:20:13.144Z,94.50
2019-04-07T02:23:01.973Z,94.70
2019-04-07T02:25:40.568Z,94.70
2019-04-07T02:28:12.645Z,94.80
2019-04-07T02:30:54.337Z,94.90
2019-04-07T02:33:27.647Z,95.20
2019-04-07T02:36:17.097Z,95.50
2019-04-07T02:38:36.839Z,95.80
2019-04-07T02:41:15.913Z,96.00
2019-04-07T02:43:55.465Z,96.00
2019-04-07T02:46:44.087Z,96.00
2019-04-07T02:49:16.577Z,96.40
2019-04-07T02:51:49.736Z,96.40
2019-04-07T02:54:34.619Z,96.20
2019-04-07T02:57:07.921Z,96.40
2019-04-07T02:59:56.444Z,96.30
2019-04-07T03:02:31.758Z,96.40
2019-04-07T03:05:20.979Z,96.30
2019-04-07T03:07:59.502Z,96.70
2019-04-07T03:10:31.578Z,96.20
2019-04-07T03:13:12.758Z,96.20
2019-04-07T03:15:46.157Z,96.30
2019-04-07T03:18:26.531Z,96.50
2019-04-07T03:21:01.190Z,96.40
2019-04-07T03:23:33.375Z,96.10
2019-04-07T03:26:12.631Z,96.20
2019-04-07T03:28:47.536Z,95.20
2019-04-07T03:31:29.740Z,94.20
2019-04-07T03:34:13.683Z,93.10
2019-04-07T03:37:11.698Z,92.00
2019-04-07T03:39:24.886Z,90.70
2019-04-07T03:41:57.090Z,88.90
2019-04-07T03:44:29.315Z,85.70
2019-04-07T03:47:01.559Z,83.30
2019-04-07T03:49:35.012Z,82.00
2019-04-07T03:52:13.613Z,79.70
2019-04-07T03:54:46.566Z,78.80
2019-04-07T03:57:34.025Z,76.10
2019-04-07T04:00:19.641Z,76.30
2019-04-07T04:02:56.998Z,72.80
2019-04-07T04:05:34.159Z,70.20
2019-04-07T04:08:12.434Z,68.20
2019-04-07T04:10:44.938Z,67.60
2019-04-07T04:13:32.793Z,66.30
2019-04-07T04:16:05.989Z,66.70
2019-04-07T04:18:38.214Z,64.10
2019-04-07T04:21:09.095Z,62.00
2019-04-07T04:23:42.740Z,60.20
2019-04-07T04:26:11.895Z,66.20
2019-04-07T04:28:42.997Z,66.70
2019-04-07T04:31:14.077Z,63.30
2019-04-07T04:33:44.712Z,63.30
2019-04-07T04:36:15.567Z,61.80
2019-04-07T04:38:46.446Z,60.70
2019-04-07T04:41:17.084Z,63.40
2019-04-07T04:43:47.534Z,61.30
2019-04-07T04:46:18.616Z,58.30
2019-04-07T04:48:49.486Z,57.90
2019-04-07T04:51:20.351Z,58.30
2019-04-07T04:53:51.908Z,56.80
2019-04-07T04:56:22.907Z,56.00
2019-04-07T04:58:53.683Z,56.50
2019-04-07T05:01:26.468Z,57.50
2019-04-07T05:03:57.064Z,57.90
2019-04-07T05:06:27.779Z,58.20
2019-04-07T05:08:58.242Z,55.80
2019-04-07T05:11:29.334Z,56.00
2019-04-07T05:14:00.285Z,55.60
2019-04-07T05:16:31.080Z,52.60
2019-04-07T05:19:08.777Z,52.90
2019-04-07T05:21:41.760Z,52.50
2019-04-07T05:24:14.728Z,52.00
2019-04-07T05:26:45.567Z,51.00
2019-04-07T05:29:17.901Z,51.00
2019-04-07T05:31:54.074Z,51.70
2019-04-07T05:34:28.152Z,52.10
2019-04-07T05:36:59.472Z,52.60
2019-04-07T05:39:31.747Z,52.60
2019-04-07T05:42:04.920Z,51.60
2019-04-07T05:44:35.622Z,52.30
2019-04-07T05:47:13.842Z,51.60
2019-04-07T05:50:02.965Z,51.80
2019-04-07T05:52:36.921Z,52.90
2019-04-07T05:55:09.952Z,52.30
2019-04-07T05:57:46.488Z,51.00
2019-04-07T06:00:18.739Z,50.60
2019-04-07T06:03:08.225Z,49.10
2019-04-07T06:05:26.291Z,49.80
2019-04-07T06:08:06.281Z,51.40
2019-04-07T06:10:34.738Z,51.30
2019-04-07T06:13:05.342Z,51.20
2019-04-07T06:15:39.099Z,54.30
2019-04-07T06:21:14.141Z,54.60
2019-04-07T06:23:44.238Z,57.30
2019-04-07T06:26:19.802Z,60.50
2019-04-07T06:28:58.401Z,61.80
2019-04-07T06:31:31.318Z,60.50
2019-04-07T06:34:07.883Z,60.30
2019-04-07T06:36:39.736Z,60.60
2019-04-07T06:39:19.943Z,62.90
2019-04-07T06:41:48.806Z,64.10
2019-04-07T06:44:27.976Z,64.00
2019-04-07T06:47:03.440Z,63.30
2019-04-07T06:49:42.678Z,62.80
2019-04-07T08:35:40.012Z,55.40
2019-04-07T08:38:13.816Z,55.40
2019-04-07T08:40:44.760Z,54.40
2019-04-07T08:43:19.758Z,53.90
2019-04-07T08:45:48.522Z,54.80
2019-04-07T08:48:21.431Z,55.50
2019-04-07T08:50:52.857Z,54.70
2019-04-07T08:53:23.931Z,54.10
2019-04-07T08:55:58.890Z,54.60
2019-04-07T08:58:33.121Z,54.50
2019-04-07T09:01:02.078Z,53.40
2019-04-07T09:03:33.190Z,52.90
2019-04-07T09:06:06.152Z,53.10
2019-04-07T09:08:39.000Z,53.10
2019-04-07T09:11:14.694Z,53.30
2019-04-07T09:13:48.694Z,51.60
2019-04-07T09:16:21.169Z,51.20
2019-04-07T09:19:14.986Z,50.10
2019-04-07T09:21:51.717Z,49.40
2019-04-07T09:24:54.433Z,50.30
2019-04-07T09:27:57.263Z,50.60
2019-04-07T09:30:50.905Z,49.70
2019-04-07T09:33:55.002Z,49.50
2019-04-07T09:36:37.835Z,49.50
2019-04-07T09:39:31.450Z,49.00
2019-04-07T09:42:04.439Z,48.90
2019-04-07T09:44:42.223Z,47.90
2019-04-07T09:47:32.144Z,48.00
2019-04-07T09:50:10.285Z,47.10
2019-04-07T09:52:58.692Z,48.10
2019-04-07T09:55:39.687Z,47.70
2019-04-07T09:58:30.861Z,47.60
2019-04-07T10:01:12.137Z,48.10
2019-04-07T10:04:02.863Z,49.40
2019-04-07T10:06:51.034Z,50.00
2019-04-07T10:09:23.072Z,50.30
2019-04-07T10:12:00.618Z,49.70
2019-04-07T10:14:32.656Z,48.70
2019-04-07T10:17:21.141Z,47.90
2019-04-07T10:20:05.229Z,48.60
2019-04-07T10:22:46.173Z,48.50
2019-04-07T10:25:26.871Z,48.70
2019-04-07T10:28:13.969Z,49.00
2019-04-07T10:30:48.816Z,49.60
2019-04-07T10:33:21.495Z,49.00
2019-04-07T10:36:02.966Z,49.70
2019-04-07T10:38:51.045Z,50.60
2019-04-07T10:41:39.418Z,49.50
2019-04-07T10:44:21.302Z,48.90
2019-04-07T10:47:09.554Z,48.80
2019-04-07T10:49:41.932Z,49.10
2019-04-07T10:52:29.301Z,48.90
2019-04-07T10:55:17.560Z,48.50
2019-04-07T10:58:06.059Z,48.10
2019-04-07T11:00:42.207Z,48.10
2019-04-07T11:03:27.354Z,48.30
2019-04-07T11:05:59.403Z,48.60
2019-04-07T11:08:32.106Z,48.00
2019-04-07T11:11:23.128Z,47.60
2019-04-07T11:14:13.903Z,47.70
2019-04-07T11:16:52.417Z,47.80
2019-04-07T11:19:39.710Z,47.10
2019-04-07T11:22:18.760Z,48.30
2019-04-07T11:24:57.497Z,48.30
2019-04-07T11:27:42.986Z,48.20
2019-04-07T11:30:21.366Z,48.20
2019-04-07T11:33:10.590Z,47.90
2019-04-07T11:35:47.584Z,47.90
2019-04-07T11:38:32.231Z,47.20
2019-04-07T11:41:33.623Z,47.50
2019-04-07T11:44:20.127Z,47.10
2019-04-07T11:47:02.188Z,47.40
2019-04-07T11:49:44.721Z,47.50
2019-04-07T11:52:35.371Z,47.30
2019-04-07T11:55:29.133Z,46.80
2019-04-07T11:58:11.634Z,47.50
2019-04-07T12:00:45.171Z,47.60
2019-04-07T12:03:24.813Z,47.30
2019-04-07T12:06:11.617Z,48.00
2019-04-07T12:08:53.536Z,47.50
2019-04-07T12:11:43.589Z,47.70
2019-04-07T12:14:28.683Z,47.80
2019-04-07T12:17:13.739Z,47.80
2019-04-07T12:20:05.327Z,47.70
2019-04-07T12:22:47.716Z,48.10
2019-04-07T12:25:34.652Z,47.80
2019-04-07T12:28:07.107Z,48.20
2019-04-07T12:30:39.281Z,48.70
2019-04-07T12:33:21.837Z,48.10
2019-04-07T12:35:59.652Z,48.00
2019-04-07T12:38:48.113Z,47.20
2019-04-07T12:41:22.230Z,47.20
2019-04-07T12:43:56.326Z,46.60
2019-04-07T12:46:28.969Z,46.60
2019-04-07T12:49:09.844Z,47.30
2019-04-07T12:51:45.029Z,47.60
2019-04-07T12:54:30.244Z,46.80
2019-04-07T12:57:20.577Z,46.40
2019-04-07T13:00:09.004Z,46.80
2019-04-07T13:02:42.632Z,46.70
2019-04-07T13:05:14.921Z,46.40
2019-04-07T13:07:54.311Z,46.50
2019-04-07T13:10:34.024Z,46.90
2019-04-07T13:13:29.534Z,46.60
2019-04-07T13:16:21.017Z,46.10
2019-04-07T13:18:53.037Z,46.40
2019-04-07T13:21:25.224Z,46.20
2019-04-07T13:24:10.044Z,46.30
2019-04-07T13:26:46.971Z,46.00
2019-04-07T13:29:19.016Z,46.30
2019-04-07T13:31:56.870Z,45.80
2019-04-07T13:34:45.739Z,45.60
2019-04-07T13:37:17.725Z,45.70
2019-04-07T13:40:01.782Z,45.70
2019-04-07T13:42:42.702Z,46.10
2019-04-07T13:45:16.450Z,46.00
2019-04-07T13:47:54.596Z,45.70
2019-04-07T13:50:43.818Z,45.60
2019-04-07T13:53:25.812Z,45.70
2019-04-07T13:56:15.017Z,45.80
2019-04-07T13:58:51.980Z,45.80
2019-04-07T14:01:39.724Z,46.20
2019-04-07T14:08:04.041Z,47.00
2019-04-07T14:11:02.534Z,46.60
2019-04-07T14:13:42.430Z,46.30
2019-04-07T14:16:41.273Z,46.60
2019-04-07T14:19:16.706Z,46.60
2019-04-07T14:21:51.787Z,46.30
2019-04-07T14:24:30.154Z,46.10
2019-04-07T14:27:04.304Z,46.00
2019-04-07T14:29:50.240Z,46.20
2019-04-07T14:32:23.132Z,46.00
2019-04-07T14:35:05.315Z,46.20
2019-04-07T14:37:38.280Z,46.40
2019-04-07T14:40:27.970Z,46.20
2019-04-07T14:43:05.458Z,46.20
2019-04-07T14:45:40.644Z,46.30
2019-04-07T14:48:16.213Z,46.10
2019-04-07T14:54:08.941Z,46.10
2019-04-07T14:56:50.419Z,46.10
2019-04-07T14:59:26.442Z,46.00
2019-04-07T15:02:04.301Z,46.20
2019-04-07T15:04:36.726Z,46.30
2019-04-07T15:07:36.640Z,46.10
2019-04-07T15:10:29.455Z,46.10
2019-04-07T15:13:01.873Z,46.30
2019-04-07T15:15:35.732Z,46.40
2019-04-07T15:18:07.235Z,46.50
2019-04-07T15:20:42.710Z,46.60
2019-04-07T15:23:13.301Z,46.70
2019-04-07T15:25:49.452Z,46.80
2019-04-07T15:28:20.095Z,46.80
2019-04-07T15:30:51.579Z,47.20
2019-04-07T15:33:22.530Z,47.10
2019-04-07T15:35:55.900Z,47.30
2019-04-07T15:38:27.291Z,47.50
2019-04-07T15:41:04.508Z,47.70
2019-04-07T15:43:35.275Z,47.70
2019-04-07T15:46:23.745Z,47.80
2019-04-07T15:48:56.749Z,47.80
2019-04-07T15:51:29.483Z,47.90
2019-04-07T15:54:00.750Z,48.20
2019-04-07T15:56:39.685Z,48.50
2019-04-07T15:59:11.851Z,48.70
2019-04-07T16:01:43.876Z,48.90
2019-04-07T16:04:14.827Z,49.20
2019-04-07T16:06:49.033Z,49.30
2019-04-07T16:09:31.473Z,49.50
2019-04-07T16:11:51.865Z,49.80
2019-04-07T16:14:23.062Z,50.30
2019-04-07T16:16:55.148Z,50.40
2019-04-07T16:19:37.243Z,50.50
2019-04-07T16:21:57.657Z,50.60
2019-04-07T16:24:42.224Z,50.80
2019-04-07T16:27:12.343Z,50.90
2019-04-07T16:29:42.955Z,51.50
2019-04-07T16:32:13.566Z,52.30
2019-04-07T16:34:44.838Z,52.30
2019-04-07T16:37:15.924Z,52.90
2019-04-07T16:39:48.427Z,53.60
2019-04-07T16:42:19.575Z,54.80
2019-04-07T16:44:50.547Z,55.40
2019-04-07T16:47:25.631Z,55.80
2019-04-07T16:49:53.159Z,56.10
2019-04-07T16:52:24.396Z,56.50
2019-04-07T16:54:57.424Z,56.90
2019-04-07T16:57:31.083Z,56.90
2019-04-07T17:00:00.406Z,57.20
2019-04-07T17:02:32.762Z,57.10
2019-04-07T17:05:09.247Z,57.20
2019-04-07T17:07:47.010Z,57.70
2019-04-07T17:10:22.973Z,58.00
2019-04-07T17:13:02.916Z,58.50
2019-04-07T17:15:37.450Z,59.00
2019-04-07T17:18:09.851Z,59.20
2019-04-07T17:20:41.242Z,59.70
2019-04-07T17:23:21.346Z,59.90
2019-04-07T17:25:54.766Z,59.80
2019-04-07T17:37:49.363Z,62.30
2019-04-07T17:40:22.662Z,61.90
2019-04-07T17:42:55.034Z,61.80
2019-04-07T17:45:30.796Z,62.40
2019-04-07T17:48:20.185Z,62.30
2019-04-07T17:51:04.577Z,62.60
2019-04-07T17:53:50.615Z,63.60
2019-04-07T17:56:32.017Z,63.40
2019-04-07T17:59:13.075Z,63.40
2019-04-07T18:01:44.486Z,63.60
2019-04-07T18:04:36.388Z,63.40
2019-04-07T18:07:32.038Z,63.40
2019-04-07T18:10:15.590Z,63.90
2019-04-07T18:12:52.876Z,65.60
2019-04-07T18:15:26.260Z,65.40
2019-04-07T18:17:58.799Z,64.20
2019-04-07T18:24:21.141Z,64.80
2019-04-07T18:39:27.537Z,66.80
2019-04-07T18:42:19.668Z,66.80
2019-04-07T18:51:54.557Z,66.00
2019-04-07T18:58:29.237Z,66.40
2019-04-07T19:01:10.162Z,66.90
2019-04-07T19:07:24.708Z,67.20
2019-04-07T19:13:17.454Z,67.60
2019-04-07T19:19:14.714Z,68.40
2019-04-07T19:21:55.979Z,68.50
2019-04-07T19:24:42.799Z,69.10
2019-04-07T19:32:14.629Z,69.60
2019-04-07T19:34:31.806Z,69.90
2019-04-07T19:37:18.469Z,70.10
2019-04-07T19:40:12.424Z,70.60
2019-04-07T19:43:02.285Z,70.60
2019-04-07T19:45:46.937Z,70.80
2019-04-07T19:48:39.102Z,70.80
2019-04-07T19:51:17.769Z,71.10
2019-04-07T19:53:51.484Z,71.40
2019-04-07T19:56:35.655Z,71.10
2019-04-07T19:59:09.460Z,71.70
2019-04-07T20:01:59.011Z,72.00
2019-04-07T20:04:51.018Z,72.40
2019-04-07T20:07:24.388Z,72.80
2019-04-07T20:09:57.527Z,72.90
2019-04-07T20:12:43.908Z,73.50
2019-04-07T20:15:24.637Z,73.90
2019-04-07T20:18:13.045Z,75.20
2019-04-07T20:20:45.122Z,75.10
2019-04-07T20:23:29.588Z,76.30
2019-04-07T20:26:05.857Z,76.80
2019-04-07T20:28:54.169Z,77.00
2019-04-07T20:31:42.876Z,77.00
2019-04-07T20:34:24.050Z,77.00
2019-04-07T20:37:01.907Z,77.90
2019-04-07T20:39:39.592Z,78.40
2019-04-07T20:42:17.521Z,77.40
2019-04-07T20:45:03.454Z,76.20
2019-04-07T20:47:34.952Z,76.10
2019-04-07T20:50:24.648Z,76.90
2019-04-07T20:53:09.250Z,76.70
2019-04-07T20:55:39.972Z,77.10
2019-04-07T20:58:43.748Z,77.60
2019-04-07T21:01:10.107Z,77.10
2019-04-07T21:03:47.005Z,77.30
2019-04-07T21:06:19.396Z,77.90
2019-04-07T21:08:54.490Z,78.80
2019-04-07T21:11:42.839Z,78.60
2019-04-07T21:14:15.500Z,78.80
2019-04-07T21:16:47.951Z,79.60
2019-04-07T21:19:25.704Z,78.10
2019-04-07T21:22:05.457Z,78.20
2019-04-07T21:24:53.875Z,78.30
2019-04-07T21:27:38.667Z,78.30
2019-04-07T21:30:17.358Z,78.80
2019-04-07T21:33:02.184Z,78.80
2019-04-07T21:35:40.557Z,79.30
2019-04-07T21:38:13.497Z,79.70
2019-04-07T21:40:45.891Z,79.90
2019-04-07T21:43:24.310Z,79.70
2019-04-07T21:45:55.647Z,80.00
2019-04-07T21:48:45.332Z,80.10
2019-04-07T21:51:33.867Z,80.20
2019-04-07T21:54:05.896Z,80.40
2019-04-07T21:56:47.581Z,80.10
2019-04-07T21:59:37.934Z,80.00
2019-04-07T22:02:19.445Z,80.20
2019-04-07T22:04:54.617Z,80.60
2019-04-07T22:07:33.278Z,80.90
2019-04-07T22:10:13.600Z,80.10
2019-04-07T22:12:44.429Z,79.50
2019-04-07T22:15:15.427Z,80.50
2019-04-07T22:17:46.120Z,80.00
2019-04-07T22:20:20.127Z,79.60
2019-04-07T22:22:51.101Z,79.50
2019-04-07T22:25:24.778Z,79.40
2019-04-07T22:27:56.663Z,79.60
2019-04-07T22:30:27.482Z,79.60
2019-04-07T22:32:58.101Z,79.20
2019-04-07T22:35:28.706Z,78.80
2019-04-07T22:37:59.288Z,78.60
2019-04-07T22:40:34.232Z,78.10
2019-04-07T22:43:01.794Z,77.50
2019-04-07T22:45:32.448Z,77.20
2019-04-07T22:48:03.487Z,77.10
2019-04-07T22:50:37.141Z,77.30
2019-04-07T22:53:07.226Z,77.40
2019-04-07T22:55:38.082Z,77.20
2019-04-07T22:58:08.529Z,76.90
2019-04-07T23:00:39.110Z,76.90
2019-04-07T23:03:09.969Z,76.00
2019-04-07T23:05:41.663Z,75.70
2019-04-07T23:08:12.466Z,75.50
2019-04-07T23:10:42.968Z,76.00
2019-04-07T23:13:15.372Z,75.40
2019-04-07T23:15:47.432Z,76.80
2019-04-07T23:18:20.935Z,75.90
2019-04-07T23:20:51.604Z,75.80
2019-04-07T23:23:22.064Z,76.80
2019-04-07T23:25:53.500Z,76.90
2019-04-07T23:28:24.966Z,76.50
2019-04-07T23:30:55.439Z,75.80
2019-04-07T23:33:25.936Z,75.40
2019-04-07T23:35:56.302Z,75.40
2019-04-07T23:38:26.742Z,75.70
2019-04-07T23:40:57.724Z,75.50
2019-04-07T23:43:29.164Z,75.30
2019-04-07T23:46:00.186Z,75.40
2019-04-07T23:48:30.720Z,75.30
2019-04-07T23:51:01.690Z,75.40
2019-04-07T23:54:07.489Z,75.50
2019-04-07T23:56:39.652Z,75.70
2019-04-07T23:59:10.624Z,75.90
